createdAt,value
2022-08-05T00:00:26.009Z,100056.06
2022-08-05T00:02:54.058Z,100049.22
2022-08-05T00:06:02.664Z,100054.88
2022-08-05T00:08:32.406Z,100051.38
2022-08-05T00:11:00.932Z,100057.03
2022-08-05T00:13:38.476Z,100053.41
2022-08-05T00:16:12.215Z,100054.22
2022-08-05T00:18:44.265Z,100052.91
2022-08-05T00:21:14.386Z,100060.53
2022-08-05T00:23:53.573Z,100072.66
2022-08-05T00:26:35.456Z,100103.16
2022-08-05T00:29:04.952Z,100134.19
2022-08-05T00:31:53.675Z,100171.81
2022-08-05T00:34:54.549Z,100186.06
2022-08-05T00:37:14.411Z,100180.88
2022-08-05T00:39:57.973Z,100151.06
2022-08-05T00:42:34.502Z,100161.56
2022-08-05T00:45:08.532Z,100170.72
2022-08-05T00:47:56.321Z,100181.50
2022-08-05T00:50:25.958Z,100183.94
2022-08-05T00:52:55.310Z,100193.41
2022-08-05T00:55:23.427Z,100195.03
2022-08-05T00:58:11.550Z,100191.53
2022-08-05T01:00:42.194Z,100210.38
2022-08-05T01:03:12.679Z,100213.69
2022-08-05T01:05:51.491Z,100205.13
2022-08-05T01:08:41.839Z,100210.41
2022-08-05T01:11:13.768Z,100215.00
2022-08-05T01:14:01.640Z,100205.56
2022-08-05T01:16:38.489Z,100201.09
2022-08-05T01:19:20.859Z,100206.97
2022-08-05T01:22:18.754Z,100191.34
2022-08-05T01:25:14.030Z,100188.28
2022-08-05T01:28:09.233Z,100202.16
2022-08-05T01:30:41.029Z,100200.88
2022-08-05T01:33:29.479Z,100182.41
2022-08-05T01:36:13.086Z,100123.19
2022-08-05T01:38:48.584Z,100093.22
2022-08-05T01:41:25.565Z,100086.03
2022-08-05T01:43:56.622Z,100092.44
2022-08-05T01:46:42.715Z,100091.25
2022-08-05T01:49:24.144Z,100076.66
2022-08-05T01:51:58.369Z,100073.69
2022-08-05T01:54:33.044Z,100074.03
2022-08-05T01:58:29.306Z,100082.41
2022-08-05T01:59:53.769Z,100078.28
2022-08-05T02:02:26.124Z,100082.06
2022-08-05T02:05:01.639Z,100080.66
2022-08-05T02:07:31.956Z,100077.38
2022-08-05T02:10:03.362Z,100065.28
2022-08-05T02:12:39.548Z,100061.16
2022-08-05T02:15:14.191Z,100058.13
2022-08-05T02:18:30.646Z,100059.41
2022-08-05T02:20:50.109Z,100054.84
2022-08-05T02:23:23.466Z,100052.84
2022-08-05T02:25:53.389Z,100047.66
2022-08-05T02:28:29.156Z,100047.09
2022-08-05T02:31:04.313Z,100034.88
2022-08-05T02:33:39.385Z,100040.28
2022-08-05T02:36:13.656Z,100024.50
2022-08-05T02:38:53.460Z,100010.63
2022-08-05T02:41:29.025Z,100001.09
2022-08-05T02:44:13.157Z,100005.94
2022-08-05T02:46:58.754Z,100022.19
2022-08-05T02:49:36.624Z,100047.38
2022-08-05T02:52:08.639Z,100064.66
2022-08-05T02:54:41.137Z,100082.91
2022-08-05T02:58:10.568Z,100101.56
2022-08-05T03:00:02.581Z,100101.81
2022-08-05T03:02:37.622Z,100134.63
2022-08-05T03:05:09.761Z,100155.47
2022-08-05T03:08:01.111Z,100131.47
2022-08-05T03:10:28.834Z,100149.00
2022-08-05T03:15:26.033Z,100166.25
2022-08-05T03:17:57.602Z,100178.94
2022-08-05T03:20:26.347Z,100192.69
2022-08-05T03:22:57.282Z,100196.94
2022-08-05T03:25:32.786Z,100194.94
2022-08-05T03:28:18.417Z,100181.41
2022-08-05T03:30:48.416Z,100172.47
2022-08-05T03:33:17.918Z,100141.78
2022-08-05T03:35:46.592Z,100140.56
2022-08-05T03:38:14.905Z,100150.31
2022-08-05T03:40:45.212Z,100142.09
2022-08-05T03:44:09.270Z,100131.00
2022-08-05T03:46:08.099Z,100114.41
2022-08-05T03:48:37.673Z,100104.91
2022-08-05T03:52:38.978Z,100119.09
2022-08-05T03:55:51.363Z,100154.56
2022-08-05T03:57:00.134Z,100212.56
2022-08-05T03:59:47.302Z,100263.78
2022-08-05T04:02:38.229Z,100314.56
2022-08-05T04:05:11.032Z,100326.94
2022-08-05T04:07:57.338Z,100358.56
2022-08-05T04:10:30.780Z,100368.50
2022-08-05T04:13:03.440Z,100351.69
2022-08-05T04:15:32.980Z,100347.69
2022-08-05T04:18:06.898Z,100326.69
2022-08-05T04:20:37.522Z,100316.97
2022-08-05T04:23:05.523Z,100309.63
2022-08-05T04:25:57.651Z,100304.94
2022-08-05T04:28:30.905Z,100288.22
2022-08-05T04:31:00.838Z,100270.88
2022-08-05T04:33:54.848Z,100255.56
2022-08-05T04:36:45.753Z,100253.72
2022-08-05T04:39:08.407Z,100258.25
2022-08-05T04:41:37.638Z,100268.22
2022-08-05T04:44:09.572Z,100262.59
2022-08-05T04:46:38.766Z,100270.72
2022-08-05T04:49:12.182Z,100278.19
2022-08-05T04:51:45.264Z,100267.44
2022-08-05T04:54:15.559Z,100257.25
2022-08-05T04:56:45.740Z,100237.97
2022-08-05T04:59:23.996Z,100249.56
2022-08-05T05:02:35.153Z,100265.31
2022-08-05T05:04:50.662Z,100275.06
2022-08-05T05:07:29.287Z,100274.06
2022-08-05T05:09:57.916Z,100270.53
2022-08-05T05:12:27.348Z,100278.19
2022-08-05T05:14:55.616Z,100294.38
2022-08-05T05:17:24.855Z,100303.50
2022-08-05T05:20:13.582Z,100305.78
2022-08-05T05:22:44.149Z,100318.03
2022-08-05T05:25:16.980Z,100329.69
2022-08-05T05:27:53.470Z,100341.28
2022-08-05T05:30:31.108Z,100351.81
2022-08-05T05:33:03.909Z,100360.28
2022-08-05T05:35:42.586Z,100367.97
2022-08-05T05:38:12.971Z,100373.81
2022-08-05T05:40:49.476Z,100368.25
2022-08-05T05:43:28.128Z,100370.28
2022-08-05T05:46:15.884Z,100360.97
2022-08-05T05:48:47.849Z,100364.44
2022-08-05T05:51:23.962Z,100352.59
2022-08-05T05:53:58.918Z,100331.22
2022-08-05T05:56:32.901Z,100360.81
2022-08-05T05:59:05.210Z,100354.16
2022-08-05T06:01:37.506Z,100340.19
2022-08-05T06:04:08.457Z,100331.03
2022-08-05T06:06:41.980Z,100321.03
2022-08-05T06:09:17.655Z,100324.31
2022-08-05T06:11:59.225Z,100340.22
2022-08-05T06:14:29.047Z,100347.91
2022-08-05T06:17:02.173Z,100376.94
2022-08-05T06:19:57.015Z,100371.88
2022-08-05T06:22:29.272Z,100361.59
2022-08-05T06:24:58.931Z,100366.13
2022-08-05T06:28:10.719Z,100369.81
2022-08-05T06:30:20.926Z,100352.91
2022-08-05T06:32:50.852Z,100340.91
2022-08-05T06:36:04.002Z,100334.41
2022-08-05T06:38:11.137Z,100336.69
2022-08-05T06:40:44.430Z,100315.59
2022-08-05T06:43:58.246Z,100301.06
2022-08-05T06:46:06.716Z,100283.94
2022-08-05T06:48:55.940Z,100295.88
2022-08-05T06:51:29.979Z,100294.69
2022-08-05T06:54:01.986Z,100302.41
2022-08-05T06:56:34.735Z,100313.28
2022-08-05T06:59:03.698Z,100311.13
2022-08-05T07:01:36.951Z,100300.22
2022-08-05T07:04:05.160Z,100312.13
2022-08-05T07:06:35.465Z,100306.44
2022-08-05T07:09:04.673Z,100290.72
2022-08-05T07:11:36.979Z,100294.91
2022-08-05T07:14:29.505Z,100287.28
2022-08-05T07:18:00.619Z,100301.97
2022-08-05T07:20:34.048Z,100318.78
2022-08-05T07:22:38.931Z,100341.88
2022-08-05T07:25:23.058Z,100360.75
2022-08-05T07:28:03.873Z,100383.84
2022-08-05T07:30:40.167Z,100368.78
2022-08-05T07:33:16.169Z,100384.69
2022-08-05T07:36:02.655Z,100394.25
2022-08-05T07:38:42.932Z,100408.13
2022-08-05T07:42:07.063Z,100431.91
2022-08-05T07:44:18.528Z,100435.22
2022-08-05T07:46:49.727Z,100426.13
2022-08-05T07:49:18.666Z,100422.22
2022-08-05T07:51:53.199Z,100416.97
2022-08-05T07:54:33.290Z,100400.59
2022-08-05T07:57:17.626Z,100380.50
2022-08-05T07:59:55.655Z,100380.66
2022-08-05T08:02:31.269Z,100398.22
2022-08-05T08:05:17.540Z,100410.34
2022-08-05T08:07:59.868Z,100416.41
2022-08-05T08:10:29.242Z,100406.88
2022-08-05T08:13:01.724Z,100413.25
2022-08-05T08:16:33.927Z,100416.91
2022-08-05T08:18:20.796Z,100422.00
2022-08-05T08:21:02.430Z,100422.09
2022-08-05T08:24:01.328Z,100405.41
2022-08-05T08:26:29.560Z,100414.28
2022-08-05T08:29:29.252Z,100418.84
2022-08-05T08:31:48.755Z,100417.66
2022-08-05T08:34:16.862Z,100411.19
2022-08-05T08:36:52.355Z,100410.09
2022-08-05T08:39:24.671Z,100408.00
2022-08-05T08:41:59.567Z,100413.31
2022-08-05T08:45:24.013Z,100411.00
2022-08-05T08:48:06.055Z,100398.97
2022-08-05T08:50:31.581Z,100405.13
2022-08-05T08:53:07.870Z,100410.47
2022-08-05T08:56:04.047Z,100420.19
2022-08-05T08:58:36.962Z,100431.47
2022-08-05T09:01:16.647Z,100437.22
2022-08-05T09:03:47.484Z,100436.53
2022-08-05T09:06:21.090Z,100434.69
2022-08-05T09:08:52.095Z,100436.81
2022-08-05T09:11:52.037Z,100425.41
2022-08-05T09:14:54.035Z,100426.94
2022-08-05T09:16:56.337Z,100412.59
2022-08-05T09:19:28.010Z,100417.09
2022-08-05T09:22:22.172Z,100415.22
2022-08-05T09:25:00.231Z,100414.03
2022-08-05T09:28:05.293Z,100402.03
2022-08-05T09:30:25.506Z,100394.69
2022-08-05T09:32:53.956Z,100385.38
2022-08-05T09:35:27.410Z,100392.72
2022-08-05T09:38:17.720Z,100398.28
2022-08-05T09:40:53.624Z,100406.63
2022-08-05T09:43:28.200Z,100395.50
2022-08-05T09:46:27.629Z,100396.72
2022-08-05T09:49:07.930Z,100392.19
2022-08-05T09:51:49.924Z,100390.19
2022-08-05T09:54:32.089Z,100396.03
2022-08-05T09:57:01.261Z,100386.00
2022-08-05T09:59:34.899Z,100393.56
2022-08-05T10:02:05.334Z,100389.78
2022-08-05T10:04:40.864Z,100390.09
2022-08-05T10:07:20.262Z,100400.09
2022-08-05T10:10:15.308Z,100410.97
2022-08-05T10:12:49.339Z,100413.41
2022-08-05T10:15:23.804Z,100410.09
2022-08-05T10:18:12.415Z,100391.44
2022-08-05T10:20:47.674Z,100387.88
2022-08-05T10:23:21.782Z,100396.41
2022-08-05T10:26:07.085Z,100398.81
2022-08-05T10:28:36.643Z,100404.53
2022-08-05T10:33:01.408Z,100399.78
2022-08-05T10:33:54.436Z,100395.44
2022-08-05T10:36:25.851Z,100389.84
2022-08-05T10:39:10.141Z,100391.00
2022-08-05T10:41:48.133Z,100400.28
2022-08-05T10:44:21.722Z,100413.81
2022-08-05T10:46:54.197Z,100417.34
2022-08-05T10:49:27.572Z,100415.81
2022-08-05T10:52:05.424Z,100411.25
2022-08-05T10:54:56.731Z,100409.69
2022-08-05T10:57:30.850Z,100408.50
2022-08-05T11:00:19.541Z,100419.00
2022-08-05T11:03:24.720Z,100414.53
2022-08-05T11:06:05.851Z,100420.53
2022-08-05T11:08:39.413Z,100419.22
2022-08-05T11:11:52.659Z,100424.63
2022-08-05T11:15:11.605Z,100431.59
2022-08-05T11:18:07.685Z,100440.28
2022-08-05T11:20:41.632Z,100424.56
2022-08-05T11:23:33.712Z,100422.75
2022-08-05T11:26:32.341Z,100430.22
2022-08-05T11:29:11.600Z,100431.75
2022-08-05T11:31:57.943Z,100435.09
2022-08-05T11:34:51.638Z,100430.13
2022-08-05T11:38:30.297Z,100429.75
2022-08-05T11:41:14.210Z,100441.13
2022-08-05T11:44:06.417Z,100434.00
2022-08-05T11:46:58.528Z,100445.97
2022-08-05T11:49:34.154Z,100445.22
2022-08-05T11:52:11.124Z,100441.94
2022-08-05T11:54:41.290Z,100431.97
2022-08-05T11:57:25.583Z,100441.06
2022-08-05T11:59:58.841Z,100440.75
2022-08-05T12:02:33.374Z,100434.56
2022-08-05T12:05:07.662Z,100437.78
2022-08-05T12:08:03.379Z,100445.41
2022-08-05T12:10:43.402Z,100448.09
2022-08-05T12:13:27.999Z,100441.63
2022-08-05T12:16:14.194Z,100445.34
2022-08-05T12:18:49.399Z,100428.00
2022-08-05T12:21:23.578Z,100445.81
2022-08-05T12:23:59.997Z,100436.25
2022-08-05T12:26:31.973Z,100444.00
2022-08-05T12:28:59.977Z,100443.94
2022-08-05T12:31:42.494Z,100452.66
2022-08-05T12:34:21.096Z,100460.47
2022-08-05T12:36:51.935Z,100464.09
2022-08-05T12:39:20.327Z,100458.72
2022-08-05T12:41:48.723Z,100455.13
2022-08-05T12:44:28.661Z,100471.94
2022-08-05T12:47:03.650Z,100472.78
2022-08-05T12:50:03.869Z,100471.09
2022-08-05T12:52:38.122Z,100478.38
2022-08-05T12:55:22.470Z,100470.25
2022-08-05T12:58:48.950Z,100480.28
2022-08-05T13:02:01.084Z,100484.28
2022-08-05T13:03:32.603Z,100480.50
2022-08-05T13:06:02.318Z,100485.41
2022-08-05T13:08:32.285Z,100471.50
2022-08-05T13:11:02.429Z,100486.16
2022-08-05T13:14:05.755Z,100501.81
2022-08-05T13:16:25.183Z,100498.00
2022-08-05T13:18:58.916Z,100503.72
2022-08-05T13:21:37.992Z,100496.84
2022-08-05T13:24:44.868Z,100491.81
2022-08-05T13:27:05.742Z,100498.88
2022-08-05T13:29:39.209Z,100499.22
2022-08-05T13:32:34.036Z,100492.28
2022-08-05T13:35:04.885Z,100511.38
2022-08-05T13:37:35.278Z,100516.16
2022-08-05T13:40:15.038Z,100515.97
2022-08-05T13:42:45.203Z,100523.06
2022-08-05T13:45:13.810Z,100524.41
2022-08-05T13:48:08.524Z,100530.69
2022-08-05T13:50:36.805Z,100530.41
2022-08-05T13:53:08.835Z,100527.13
2022-08-05T13:55:50.240Z,100539.97
2022-08-05T13:58:30.373Z,100542.81
2022-08-05T14:00:59.594Z,100536.56
2022-08-05T14:03:28.549Z,100528.53
2022-08-05T14:06:25.840Z,100528.84
2022-08-05T14:08:45.393Z,100527.66
2022-08-05T14:11:20.269Z,100511.50
2022-08-05T14:13:54.995Z,100506.00
2022-08-05T14:16:25.907Z,100509.75
2022-08-05T14:18:53.722Z,100506.03
2022-08-05T14:22:07.505Z,100497.38
2022-08-05T14:24:12.248Z,100500.81
2022-08-05T14:26:51.510Z,100507.31
2022-08-05T14:29:24.405Z,100511.41
2022-08-05T14:32:03.971Z,100528.72
2022-08-05T14:34:41.729Z,100533.53
2022-08-05T14:37:13.213Z,100546.03
2022-08-05T14:39:50.246Z,100538.38
2022-08-05T14:42:25.135Z,100546.75
2022-08-05T14:44:53.672Z,100560.22
2022-08-05T14:48:03.774Z,100548.53
2022-08-05T14:50:17.702Z,100539.97
2022-08-05T14:52:53.605Z,100534.38
2022-08-05T14:55:39.183Z,100537.66
2022-08-05T14:58:10.841Z,100543.25
2022-08-05T15:00:59.467Z,100542.44
2022-08-05T15:03:33.930Z,100539.53
2022-08-05T15:06:14.797Z,100541.34
2022-08-05T15:08:59.145Z,100554.25
2022-08-05T15:11:51.153Z,100556.81
2022-08-05T15:14:34.836Z,100556.81
2022-08-05T15:17:44.930Z,100550.50
2022-08-05T15:19:58.025Z,100556.47
2022-08-05T15:22:27.102Z,100566.84
2022-08-05T15:24:56.632Z,100565.09
2022-08-05T15:27:26.176Z,100569.50
2022-08-05T15:30:00.357Z,100580.81
2022-08-05T15:32:28.882Z,100586.00
2022-08-05T15:34:57.758Z,100597.56
2022-08-05T15:38:33.252Z,100596.78
2022-08-05T15:41:00.919Z,100596.16
2022-08-05T15:43:12.790Z,100602.97
2022-08-05T15:45:59.799Z,100616.44
2022-08-05T15:48:31.206Z,100610.06
2022-08-05T15:51:03.304Z,100625.69
2022-08-05T15:53:38.200Z,100620.97
2022-08-05T15:56:18.107Z,100619.19
2022-08-05T15:58:47.596Z,100617.34
2022-08-05T16:01:17.919Z,100623.63
2022-08-05T16:03:48.422Z,100638.63
2022-08-05T16:06:20.396Z,100648.47
2022-08-05T16:08:50.963Z,100655.59
2022-08-05T16:11:20.877Z,100657.91
2022-08-05T16:13:52.863Z,100658.91
2022-08-05T16:16:25.153Z,100664.56
2022-08-05T16:18:53.651Z,100663.53
2022-08-05T16:21:58.927Z,100664.19
2022-08-05T16:24:40.018Z,100667.72
2022-08-05T16:27:01.029Z,100668.75
2022-08-05T16:29:37.323Z,100672.25
2022-08-05T16:32:06.330Z,100666.94
2022-08-05T16:34:34.447Z,100675.84
2022-08-05T16:37:02.409Z,100673.13
2022-08-05T16:40:06.396Z,100671.53
2022-08-05T16:42:35.768Z,100687.09
2022-08-05T16:46:05.868Z,100686.09
2022-08-05T16:47:58.513Z,100685.28
2022-08-05T16:50:30.591Z,100686.53
2022-08-05T16:53:00.349Z,100679.69
2022-08-05T16:55:46.376Z,100695.69
2022-08-05T16:58:19.624Z,100690.31
2022-08-05T17:00:49.803Z,100694.44
2022-08-05T17:03:19.967Z,100694.00
2022-08-05T17:05:53.971Z,100712.72
2022-08-05T17:08:36.226Z,100712.91
2022-08-05T17:11:16.956Z,100709.81
2022-08-05T17:13:45.352Z,100717.69
2022-08-05T17:16:33.105Z,100718.75
2022-08-05T17:19:02.271Z,100717.47
2022-08-05T17:21:36.412Z,100711.06
2022-08-05T17:24:08.361Z,100725.59
2022-08-05T17:26:48.611Z,100725.97
2022-08-05T17:29:16.595Z,100729.94
2022-08-05T17:31:58.984Z,100748.81
2022-08-05T17:34:32.033Z,100754.00
2022-08-05T17:37:04.597Z,100732.44
2022-08-05T17:39:44.895Z,100724.13
2022-08-05T17:42:23.672Z,100734.09
2022-08-05T17:44:52.649Z,100748.59
2022-08-05T17:47:22.955Z,100740.50
2022-08-05T17:50:03.859Z,100746.94
2022-08-05T17:52:53.419Z,100743.22
2022-08-05T17:55:27.271Z,100743.63
2022-08-05T17:58:03.089Z,100756.53
2022-08-05T18:00:31.094Z,100752.56
2022-08-05T18:03:00.497Z,100758.97
2022-08-05T18:05:28.512Z,100753.38
2022-08-05T18:08:03.654Z,100756.28
2022-08-05T18:10:33.648Z,100766.84
2022-08-05T18:13:07.683Z,100766.22
2022-08-05T18:15:40.650Z,100764.63
2022-08-05T18:18:11.536Z,100772.72
2022-08-05T18:20:39.887Z,100774.16
2022-08-05T18:23:12.059Z,100783.47
2022-08-05T18:25:45.457Z,100784.31
2022-08-05T18:28:16.120Z,100784.09
2022-08-05T18:30:45.517Z,100795.28
2022-08-05T18:33:22.919Z,100801.91
2022-08-05T18:36:04.978Z,100814.16
2022-08-05T18:38:36.665Z,100814.38
2022-08-05T18:41:56.809Z,100813.72
2022-08-05T18:43:55.754Z,100816.81
2022-08-05T18:46:26.212Z,100822.41
2022-08-05T18:49:18.500Z,100831.94
2022-08-05T18:52:08.392Z,100837.69
2022-08-05T18:54:41.404Z,100841.56
2022-08-05T18:57:15.396Z,100840.31
2022-08-05T19:00:02.494Z,100841.50
2022-08-05T19:02:31.787Z,100852.34
2022-08-05T19:06:05.549Z,100848.34
2022-08-05T19:07:52.435Z,100848.91
2022-08-05T19:10:28.418Z,100857.31
2022-08-05T19:12:57.045Z,100871.75
2022-08-05T19:15:59.374Z,100873.25
2022-08-05T19:18:21.766Z,100878.16
2022-08-05T19:20:53.073Z,100885.69
2022-08-05T19:24:05.635Z,100893.72
2022-08-05T19:26:11.891Z,100905.38
2022-08-05T19:28:42.239Z,100904.25
2022-08-05T19:31:13.292Z,100898.59
2022-08-05T19:33:48.339Z,100915.28
2022-08-05T19:36:27.138Z,100928.69
2022-08-05T19:39:00.853Z,100930.44
2022-08-05T19:41:58.263Z,100925.63
2022-08-05T19:44:20.598Z,100937.38
2022-08-05T19:46:50.385Z,100943.91
2022-08-05T19:49:18.777Z,100946.13
2022-08-05T19:52:06.037Z,100954.75
2022-08-05T19:54:36.863Z,100951.59
2022-08-05T19:57:09.500Z,100952.97
2022-08-05T19:59:55.476Z,100954.00
2022-08-05T20:02:31.227Z,100958.91
2022-08-05T20:05:00.135Z,100968.13
2022-08-05T20:07:39.004Z,100968.34
2022-08-05T20:10:15.839Z,100962.88
2022-08-05T20:12:45.940Z,100968.78
2022-08-05T20:15:15.833Z,100968.97
2022-08-05T20:18:04.427Z,100972.41
2022-08-05T20:20:39.183Z,100983.34
2022-08-05T20:23:08.466Z,100990.28
2022-08-05T20:25:41.625Z,100985.25
2022-08-05T20:28:13.759Z,101001.28
2022-08-05T20:30:42.864Z,100996.44
2022-08-05T20:33:11.085Z,101002.81
2022-08-05T20:35:45.630Z,101010.22
2022-08-05T20:38:22.823Z,101017.78
2022-08-05T20:40:56.349Z,101022.03
2022-08-05T20:43:58.012Z,101027.97
2022-08-05T20:46:18.633Z,101032.84
2022-08-05T20:48:53.121Z,101038.06
2022-08-05T20:51:22.805Z,101034.75
2022-08-05T20:53:56.745Z,101036.78
2022-08-05T20:56:29.719Z,101036.28
2022-08-05T20:59:13.949Z,101036.63
2022-08-05T21:01:44.891Z,101036.34
2022-08-05T21:04:12.928Z,101033.50
2022-08-05T21:06:45.476Z,101034.06
2022-08-05T21:09:16.041Z,101042.47
2022-08-05T21:12:10.320Z,101041.78
2022-08-05T21:14:35.354Z,101049.84
2022-08-05T21:17:05.240Z,101050.84
2022-08-05T21:19:46.611Z,101052.03
2022-08-05T21:22:18.282Z,101049.88
2022-08-05T21:24:51.549Z,101045.91
2022-08-05T21:27:24.725Z,101051.06
2022-08-05T21:29:53.966Z,101056.78
2022-08-05T21:32:24.611Z,101048.63
2022-08-05T21:35:08.831Z,101046.94
2022-08-05T21:37:52.755Z,101053.03
2022-08-05T21:40:23.643Z,101049.31
2022-08-05T21:42:53.511Z,101055.34
2022-08-05T21:45:24.569Z,101052.81
2022-08-05T21:47:56.502Z,101055.50
2022-08-05T21:50:27.781Z,101054.53
2022-08-05T21:52:58.785Z,101064.75
2022-08-05T21:55:42.981Z,101076.69
2022-08-05T21:58:24.906Z,101084.94
2022-08-05T22:00:58.845Z,101085.47
2022-08-05T22:03:52.254Z,101096.47
2022-08-05T22:06:14.833Z,101087.13
2022-08-05T22:08:42.958Z,101091.50
2022-08-05T22:11:15.609Z,101093.69
2022-08-05T22:14:32.643Z,101099.88
2022-08-05T22:16:41.833Z,101101.03
2022-08-05T22:20:00.867Z,101103.91
2022-08-05T22:22:07.286Z,101104.09
2022-08-05T22:24:55.843Z,101101.56
2022-08-05T22:28:11.379Z,101109.63
2022-08-05T22:30:34.863Z,101109.78
2022-08-05T22:33:03.653Z,101111.13
2022-08-05T22:35:48.076Z,101107.09
2022-08-05T22:38:19.913Z,101111.97
2022-08-05T22:40:49.788Z,101108.78
2022-08-05T22:43:37.189Z,101112.47
2022-08-05T22:46:11.996Z,101122.53
2022-08-05T22:48:44.531Z,101117.47
2022-08-05T22:51:16.110Z,101112.13
2022-08-05T22:53:50.747Z,101123.50
2022-08-05T22:56:30.742Z,101120.66
2022-08-05T22:59:04.683Z,101128.19
2022-08-05T23:02:04.311Z,101132.50
2022-08-05T23:04:34.681Z,101135.03
2022-08-05T23:07:02.601Z,101139.00
2022-08-05T23:09:57.637Z,101140.16
2022-08-05T23:12:20.318Z,101140.66
2022-08-05T23:14:53.528Z,101144.84
2022-08-05T23:17:34.614Z,101150.34
2022-08-05T23:20:16.581Z,101149.03
2022-08-05T23:22:47.475Z,101149.03
2022-08-05T23:25:51.179Z,101154.53
2022-08-05T23:28:06.751Z,101146.00
2022-08-05T23:30:40.614Z,101146.31
2022-08-05T23:33:16.246Z,101158.19
2022-08-05T23:35:50.382Z,101159.13
2022-08-05T23:38:18.849Z,101171.16
2022-08-05T23:40:50.235Z,101175.81
2022-08-05T23:43:24.965Z,101173.63
2022-08-05T23:46:20.735Z,101175.97
2022-08-05T23:48:59.249Z,101176.44
2022-08-05T23:51:54.894Z,101177.91
2022-08-05T23:54:30.480Z,101175.56
2022-08-05T23:57:08.197Z,101170.00
